createdAt,value
2018-10-16T00:00:16.122Z,89.56
2018-10-16T00:00:51.574Z,89.27
2018-10-16T00:01:27.208Z,89.08
2018-10-16T00:02:02.550Z,89.27
2018-10-16T00:02:38.117Z,89.37
2018-10-16T00:03:13.442Z,89.18
2018-10-16T00:03:48.695Z,88.89
2018-10-16T00:04:24.169Z,89.08
2018-10-16T00:04:59.525Z,88.79
2018-10-16T00:05:35.363Z,88.98
2018-10-16T00:06:10.685Z,89.18
2018-10-16T00:06:46.347Z,88.89
2018-10-16T00:07:21.682Z,89.37
2018-10-16T00:07:56.803Z,88.89
2018-10-16T00:08:32.116Z,89.18
2018-10-16T00:09:07.543Z,88.89
2018-10-16T00:09:42.925Z,88.70
2018-10-16T00:10:18.417Z,88.79
2018-10-16T00:10:53.968Z,88.89
2018-10-16T00:11:29.342Z,89.37
2018-10-16T00:12:04.883Z,89.56
2018-10-16T00:12:40.378Z,89.08
2018-10-16T00:13:16.016Z,89.08
2018-10-16T00:13:51.565Z,89.18
2018-10-16T00:14:27.322Z,89.18
2018-10-16T00:15:02.919Z,89.37
2018-10-16T00:15:38.328Z,88.98
2018-10-16T00:16:13.772Z,89.18
2018-10-16T00:16:49.341Z,88.98
2018-10-16T00:17:24.765Z,88.98
2018-10-16T00:18:00.421Z,89.37
2018-10-16T00:18:35.936Z,88.89
2018-10-16T00:19:11.182Z,88.79
2018-10-16T00:19:46.617Z,89.18
2018-10-16T00:20:21.863Z,88.70
2018-10-16T00:20:57.338Z,88.79
2018-10-16T00:21:32.771Z,89.08
2018-10-16T00:22:08.237Z,88.89
2018-10-16T00:22:43.459Z,88.89
2018-10-16T00:23:19.023Z,88.79
2018-10-16T00:23:54.670Z,88.98
2018-10-16T00:24:30.010Z,88.98
2018-10-16T00:25:05.763Z,88.79
2018-10-16T00:25:41.026Z,88.79
2018-10-16T00:26:16.561Z,88.70
2018-10-16T00:26:51.996Z,88.89
2018-10-16T00:27:27.136Z,88.70
2018-10-16T00:28:02.571Z,89.56
2018-10-16T00:28:37.902Z,88.98
2018-10-16T00:29:13.335Z,89.47
2018-10-16T00:29:48.584Z,88.60
2018-10-16T00:30:23.685Z,89.18
2018-10-16T00:30:58.869Z,88.79
2018-10-16T00:31:34.229Z,88.79
2018-10-16T00:32:09.689Z,89.37
2018-10-16T00:32:45.436Z,89.08
2018-10-16T00:33:20.570Z,88.70
2018-10-16T00:33:55.918Z,89.27
2018-10-16T00:34:31.332Z,89.37
2018-10-16T00:35:06.580Z,89.18
2018-10-16T00:35:42.006Z,88.79
2018-10-16T00:36:17.550Z,89.08
2018-10-16T00:36:52.805Z,88.98
2018-10-16T00:37:28.231Z,89.08
2018-10-16T00:38:03.479Z,88.70
2018-10-16T00:38:38.684Z,88.70
2018-10-16T00:39:14.153Z,88.70
2018-10-16T00:39:49.613Z,88.60
2018-10-16T00:40:24.872Z,88.98
2018-10-16T00:41:00.311Z,88.98
2018-10-16T00:41:35.820Z,89.08
2018-10-16T00:42:11.069Z,88.98
2018-10-16T00:42:46.772Z,89.08
2018-10-16T00:43:21.969Z,88.89
2018-10-16T00:43:57.613Z,89.27
2018-10-16T00:44:33.123Z,88.98
2018-10-16T00:45:08.345Z,89.18
2018-10-16T00:45:43.934Z,89.27
2018-10-16T00:46:19.582Z,89.47
2018-10-16T00:46:54.852Z,89.18
2018-10-16T00:47:30.266Z,89.08
2018-10-16T00:48:05.435Z,89.37
2018-10-16T00:48:40.641Z,89.08
2018-10-16T00:49:16.098Z,89.18
2018-10-16T00:49:51.323Z,88.98
2018-10-16T00:50:26.756Z,88.89
2018-10-16T00:51:02.238Z,88.98
2018-10-16T00:51:37.452Z,88.89
2018-10-16T00:52:13.013Z,88.70
2018-10-16T00:52:48.361Z,88.98
2018-10-16T00:53:23.624Z,89.18
2018-10-16T00:53:59.096Z,88.89
2018-10-16T00:54:34.527Z,89.27
2018-10-16T00:55:09.864Z,89.37
2018-10-16T00:55:45.299Z,88.89
2018-10-16T00:56:20.576Z,88.79
2018-10-16T00:56:55.908Z,88.79
2018-10-16T00:57:31.169Z,89.18
2018-10-16T00:58:06.385Z,89.08
2018-10-16T00:58:41.806Z,89.08
2018-10-16T00:59:17.454Z,88.60
2018-10-16T00:59:52.888Z,88.98
2018-10-16T01:00:28.230Z,89.47
2018-10-16T01:01:03.586Z,89.37
2018-10-16T01:01:38.988Z,89.37
2018-10-16T01:02:14.616Z,88.74
2018-10-16T01:02:49.952Z,88.74
2018-10-16T01:03:25.408Z,88.60
2018-10-16T01:04:00.454Z,88.79
2018-10-16T01:04:36.258Z,88.89
2018-10-16T01:05:11.425Z,88.74
2018-10-16T01:05:46.702Z,88.65
2018-10-16T01:06:22.127Z,88.74
2018-10-16T01:06:57.559Z,88.26
2018-10-16T01:07:32.772Z,88.65
2018-10-16T01:08:08.145Z,88.65
2018-10-16T01:08:43.674Z,88.55
2018-10-16T01:09:18.913Z,88.35
2018-10-16T01:09:54.310Z,88.55
2018-10-16T01:10:29.514Z,88.55
2018-10-16T01:11:04.765Z,88.17
2018-10-16T01:11:40.415Z,88.55
2018-10-16T01:12:15.975Z,88.45
2018-10-16T01:12:51.688Z,88.74
2018-10-16T01:13:27.157Z,88.45
2018-10-16T01:14:02.797Z,88.84
2018-10-16T01:14:38.227Z,87.98
2018-10-16T01:15:13.693Z,88.35
2018-10-16T01:15:48.929Z,88.35
2018-10-16T01:16:24.438Z,88.26
2018-10-16T01:17:00.044Z,88.26
2018-10-16T01:17:35.550Z,88.17
2018-10-16T01:18:10.784Z,88.17
2018-10-16T01:18:46.051Z,88.45
2018-10-16T01:19:21.110Z,87.59
2018-10-16T01:19:56.469Z,87.88
2018-10-16T01:20:32.355Z,88.45
2018-10-16T01:21:07.916Z,88.17
2018-10-16T01:21:43.175Z,87.98
2018-10-16T01:22:18.436Z,87.88
2018-10-16T01:22:53.796Z,88.45
2018-10-16T01:23:29.371Z,87.88
2018-10-16T01:24:05.060Z,87.49
2018-10-16T01:24:40.271Z,87.59
2018-10-16T01:25:15.508Z,87.59
2018-10-16T01:25:51.229Z,88.17
2018-10-16T01:26:26.562Z,87.98
2018-10-16T01:27:01.985Z,88.17
2018-10-16T01:27:37.357Z,88.17
2018-10-16T01:28:12.608Z,87.98
2018-10-16T01:28:48.020Z,87.78
2018-10-16T01:29:23.432Z,87.78
2018-10-16T01:29:58.976Z,87.98
2018-10-16T01:30:34.431Z,87.78
2018-10-16T01:31:11.777Z,87.78
2018-10-16T01:31:46.978Z,87.78
2018-10-16T01:32:22.254Z,87.78
2018-10-16T01:32:57.277Z,87.98
2018-10-16T01:33:32.821Z,87.68
2018-10-16T01:34:07.948Z,88.17
2018-10-16T01:34:43.305Z,87.59
2018-10-16T01:35:18.638Z,87.59
2018-10-16T01:35:53.945Z,87.49
2018-10-16T01:36:29.487Z,87.40
2018-10-16T01:37:04.627Z,87.30
2018-10-16T01:37:39.984Z,87.49
2018-10-16T01:38:15.511Z,87.30
2018-10-16T01:38:50.865Z,86.63
2018-10-16T01:39:26.011Z,86.82
2018-10-16T01:40:01.472Z,87.21
2018-10-16T01:40:36.983Z,87.11
2018-10-16T01:41:12.540Z,87.01
2018-10-16T01:41:47.954Z,87.11
2018-10-16T01:42:23.446Z,87.01
2018-10-16T01:42:58.672Z,87.11
2018-10-16T01:43:33.919Z,86.63
2018-10-16T01:44:09.252Z,87.21
2018-10-16T01:44:44.568Z,86.92
2018-10-16T01:45:19.968Z,86.44
2018-10-16T01:45:55.292Z,86.92
2018-10-16T01:46:30.571Z,87.30
2018-10-16T01:47:06.053Z,87.11
2018-10-16T01:47:41.725Z,86.44
2018-10-16T01:48:18.711Z,86.82
2018-10-16T01:48:53.981Z,86.34
2018-10-16T01:49:29.336Z,86.72
2018-10-16T01:50:04.688Z,86.15
2018-10-16T01:50:40.155Z,86.15
2018-10-16T01:51:15.594Z,86.44
2018-10-16T01:51:51.111Z,86.05
2018-10-16T01:52:26.359Z,86.38
2018-10-16T01:53:01.673Z,86.34
2018-10-16T01:53:37.032Z,85.67
2018-10-16T01:54:12.425Z,85.71
2018-10-16T01:54:47.846Z,85.48
2018-10-16T01:55:23.119Z,85.86
2018-10-16T01:55:58.349Z,85.38
2018-10-16T01:56:33.782Z,85.52
2018-10-16T01:57:09.139Z,85.38
2018-10-16T01:57:44.431Z,85.81
2018-10-16T01:58:19.662Z,85.38
2018-10-16T01:58:55.081Z,85.48
2018-10-16T01:59:30.243Z,85.28
2018-10-16T02:00:06.168Z,85.10
2018-10-16T02:00:41.485Z,85.48
2018-10-16T02:01:16.859Z,85.00
2018-10-16T02:01:52.491Z,85.00
2018-10-16T02:02:27.659Z,85.04
2018-10-16T02:03:02.794Z,85.52
2018-10-16T02:03:38.107Z,85.71
2018-10-16T02:04:13.783Z,85.10
2018-10-16T02:04:49.207Z,85.77
2018-10-16T02:05:24.692Z,84.71
2018-10-16T02:05:59.986Z,85.14
2018-10-16T02:06:35.569Z,85.38
2018-10-16T02:07:11.022Z,84.75
2018-10-16T02:07:46.392Z,85.24
2018-10-16T02:08:21.757Z,85.10
2018-10-16T02:08:57.361Z,85.10
2018-10-16T02:09:32.791Z,85.10
2018-10-16T02:10:08.307Z,85.42
2018-10-16T02:10:43.953Z,85.14
2018-10-16T02:11:19.199Z,85.10
2018-10-16T02:11:54.575Z,85.67
2018-10-16T02:12:30.343Z,85.19
2018-10-16T02:13:05.879Z,85.04
2018-10-16T02:13:41.323Z,85.10
2018-10-16T02:14:16.477Z,85.14
2018-10-16T02:14:51.893Z,85.48
2018-10-16T02:15:27.242Z,85.24
2018-10-16T02:16:02.573Z,85.48
2018-10-16T02:16:38.026Z,85.52
2018-10-16T02:17:13.346Z,85.58
2018-10-16T02:17:49.015Z,85.14
2018-10-16T02:18:24.532Z,85.86
2018-10-16T02:18:59.764Z,84.85
2018-10-16T02:19:34.963Z,84.81
2018-10-16T02:20:10.634Z,85.10
2018-10-16T02:20:46.040Z,85.42
2018-10-16T02:21:21.196Z,85.67
2018-10-16T02:21:56.706Z,85.48
2018-10-16T02:22:32.021Z,84.71
2018-10-16T02:23:07.449Z,85.52
2018-10-16T02:23:42.687Z,85.04
2018-10-16T02:24:18.107Z,85.58
2018-10-16T02:24:53.568Z,85.00
2018-10-16T02:25:28.952Z,85.14
2018-10-16T02:26:04.180Z,84.95
2018-10-16T02:26:39.401Z,84.56
2018-10-16T02:27:14.832Z,84.95
2018-10-16T02:27:50.380Z,85.38
2018-10-16T02:28:25.855Z,85.04
2018-10-16T02:29:01.394Z,84.71
2018-10-16T02:29:36.768Z,84.42
2018-10-16T02:30:12.494Z,85.00
2018-10-16T02:30:47.651Z,84.95
2018-10-16T02:31:23.082Z,85.14
2018-10-16T02:31:58.441Z,84.85
2018-10-16T02:32:33.762Z,84.95
2018-10-16T02:33:09.312Z,84.66
2018-10-16T02:33:44.617Z,84.47
2018-10-16T02:34:20.255Z,84.56
2018-10-16T02:34:55.966Z,84.75
2018-10-16T02:35:31.520Z,84.47
2018-10-16T02:36:06.967Z,84.56
2018-10-16T02:36:42.361Z,84.66
2018-10-16T02:37:17.709Z,84.27
2018-10-16T02:37:53.049Z,84.18
2018-10-16T02:38:28.489Z,84.66
2018-10-16T02:39:03.932Z,84.85
2018-10-16T02:39:39.567Z,84.47
2018-10-16T02:40:15.112Z,84.18
2018-10-16T02:40:50.528Z,84.75
2018-10-16T02:41:25.625Z,84.56
2018-10-16T02:42:00.807Z,84.85
2018-10-16T02:42:36.197Z,84.95
2018-10-16T02:43:11.593Z,85.14
2018-10-16T02:43:47.056Z,84.56
2018-10-16T02:44:22.498Z,84.47
2018-10-16T02:44:57.960Z,84.75
2018-10-16T02:45:33.310Z,84.95
2018-10-16T02:46:08.628Z,85.14
2018-10-16T02:46:43.891Z,85.42
2018-10-16T02:47:19.157Z,84.66
2018-10-16T02:47:54.293Z,84.71
2018-10-16T02:48:29.652Z,84.56
2018-10-16T02:49:05.158Z,85.19
2018-10-16T02:49:40.586Z,85.10
2018-10-16T02:50:15.812Z,85.04
2018-10-16T02:50:51.178Z,85.86
2018-10-16T02:51:26.848Z,85.77
2018-10-16T02:52:02.188Z,85.10
2018-10-16T02:52:37.615Z,84.95
2018-10-16T02:53:12.880Z,85.81
2018-10-16T02:53:48.516Z,85.71
2018-10-16T02:54:23.858Z,86.15
2018-10-16T02:54:59.066Z,86.44
2018-10-16T02:55:34.212Z,86.87
2018-10-16T02:56:09.740Z,87.30
2018-10-16T02:56:45.213Z,86.82
2018-10-16T02:57:20.351Z,86.77
2018-10-16T02:57:55.484Z,86.92
2018-10-16T02:58:30.801Z,86.58
2018-10-16T02:59:06.134Z,86.15
2018-10-16T02:59:41.649Z,85.77
2018-10-16T03:00:17.020Z,85.58
2018-10-16T03:00:52.324Z,86.05
2018-10-16T03:01:27.866Z,86.54
2018-10-16T03:02:03.091Z,87.15
2018-10-16T03:02:38.247Z,87.40
2018-10-16T03:03:13.844Z,87.63
2018-10-16T03:03:49.264Z,87.40
2018-10-16T03:04:24.700Z,87.21
2018-10-16T03:05:00.344Z,86.92
2018-10-16T03:05:35.844Z,87.30
2018-10-16T03:06:11.278Z,87.59
2018-10-16T03:06:47.023Z,87.98
2018-10-16T03:07:22.364Z,88.45
2018-10-16T03:07:57.782Z,89.03
2018-10-16T03:08:33.455Z,89.51
2018-10-16T03:09:08.874Z,89.61
2018-10-16T03:09:44.328Z,88.74
2018-10-16T03:10:20.241Z,88.84
2018-10-16T03:10:55.586Z,88.65
2018-10-16T03:11:31.036Z,88.45
2018-10-16T03:12:06.259Z,88.35
2018-10-16T03:12:41.685Z,88.84
2018-10-16T03:13:16.931Z,89.51
2018-10-16T03:13:52.849Z,88.93
2018-10-16T03:14:28.227Z,88.84
2018-10-16T03:15:03.674Z,89.12
2018-10-16T03:15:39.104Z,88.84
2018-10-16T03:16:14.442Z,89.37
2018-10-16T03:16:49.730Z,89.56
2018-10-16T03:17:26.047Z,89.37
2018-10-16T03:18:01.696Z,89.65
2018-10-16T03:18:37.037Z,89.94
2018-10-16T03:19:12.263Z,89.65
2018-10-16T03:19:47.456Z,89.85
2018-10-16T03:20:22.746Z,89.85
2018-10-16T03:20:57.947Z,90.04
2018-10-16T03:21:33.307Z,89.94
2018-10-16T03:22:08.448Z,89.85
2018-10-16T03:22:43.780Z,89.85
2018-10-16T03:23:19.304Z,89.85
2018-10-16T03:23:54.746Z,89.65
2018-10-16T03:24:30.067Z,90.61
2018-10-16T03:25:05.486Z,90.61
2018-10-16T03:25:40.620Z,90.61
2018-10-16T03:26:16.003Z,90.61
2018-10-16T03:26:51.400Z,90.81
2018-10-16T03:27:26.741Z,90.90
2018-10-16T03:28:01.991Z,91.19
2018-10-16T03:28:37.443Z,91.19
2018-10-16T03:29:13.173Z,91.09
2018-10-16T03:29:48.535Z,90.81
2018-10-16T03:30:23.839Z,90.81
2018-10-16T03:30:59.314Z,90.90
2018-10-16T03:31:34.597Z,90.81
2018-10-16T03:32:10.073Z,91.19
2018-10-16T03:32:45.525Z,91.57
2018-10-16T03:33:21.090Z,91.00
2018-10-16T03:33:56.502Z,90.81
2018-10-16T03:34:32.256Z,90.81
2018-10-16T03:35:07.399Z,90.81
2018-10-16T03:35:42.997Z,91.28
2018-10-16T03:36:18.244Z,90.42
2018-10-16T03:36:53.577Z,90.90
2018-10-16T03:37:28.791Z,91.09
2018-10-16T03:38:04.032Z,90.61
2018-10-16T03:38:39.274Z,90.42
2018-10-16T03:39:14.633Z,90.33
2018-10-16T03:39:49.837Z,90.61
2018-10-16T03:40:25.391Z,90.90
2018-10-16T03:41:00.835Z,90.52
2018-10-16T03:41:36.507Z,90.52
2018-10-16T03:42:11.516Z,90.33
2018-10-16T03:42:46.857Z,90.42
2018-10-16T03:43:22.286Z,90.23
2018-10-16T03:43:57.767Z,90.42
2018-10-16T03:44:33.078Z,90.33
2018-10-16T03:45:08.416Z,90.52
2018-10-16T03:45:43.622Z,90.52
2018-10-16T03:46:18.983Z,89.85
2018-10-16T03:46:54.095Z,89.75
2018-10-16T03:47:29.456Z,89.65
2018-10-16T03:48:04.879Z,89.75
2018-10-16T03:48:40.420Z,90.04
2018-10-16T03:49:15.924Z,90.33
2018-10-16T03:49:51.580Z,89.56
2018-10-16T03:50:27.142Z,89.85
2018-10-16T03:51:02.692Z,89.94
2018-10-16T03:51:38.050Z,89.65
2018-10-16T03:52:13.213Z,90.14
2018-10-16T03:52:48.507Z,89.37
2018-10-16T03:53:23.801Z,89.08
2018-10-16T03:53:59.334Z,89.18
2018-10-16T03:54:34.667Z,88.70
2018-10-16T03:55:10.108Z,89.27
2018-10-16T03:55:45.535Z,89.37
2018-10-16T03:56:20.805Z,89.47
2018-10-16T03:56:56.143Z,90.04
2018-10-16T03:57:31.377Z,89.85
2018-10-16T03:58:06.843Z,90.23
2018-10-16T03:58:42.042Z,90.61
2018-10-16T03:59:17.476Z,90.42
2018-10-16T03:59:52.897Z,90.81
2018-10-16T04:00:28.439Z,91.09
2018-10-16T04:01:03.667Z,91.38
2018-10-16T04:01:39.219Z,91.09
2018-10-16T04:02:14.464Z,91.67
2018-10-16T04:02:50.131Z,91.91
2018-10-16T04:03:25.285Z,92.20
2018-10-16T04:04:00.576Z,91.72
2018-10-16T04:04:35.933Z,92.58
2018-10-16T04:05:11.348Z,91.72
2018-10-16T04:05:46.684Z,92.20
2018-10-16T04:06:22.214Z,92.30
2018-10-16T04:06:57.442Z,92.77
2018-10-16T04:07:32.803Z,92.97
2018-10-16T04:08:08.243Z,93.26
2018-10-16T04:08:43.617Z,93.06
2018-10-16T04:09:18.977Z,92.68
2018-10-16T04:09:54.406Z,92.58
2018-10-16T04:10:29.658Z,92.39
2018-10-16T04:11:04.876Z,92.01
2018-10-16T04:11:40.234Z,91.82
2018-10-16T04:12:15.680Z,91.82
2018-10-16T04:12:51.189Z,92.39
2018-10-16T04:13:26.730Z,92.68
2018-10-16T04:14:02.030Z,93.16
2018-10-16T04:14:37.495Z,93.16
2018-10-16T04:15:12.514Z,92.97
2018-10-16T04:15:47.951Z,93.44
2018-10-16T04:16:23.156Z,93.35
2018-10-16T04:16:58.820Z,93.35
2018-10-16T04:17:34.392Z,94.12
2018-10-16T04:18:09.528Z,93.06
2018-10-16T04:18:44.736Z,93.93
2018-10-16T04:19:20.154Z,93.98
2018-10-16T04:19:55.677Z,93.26
2018-10-16T04:20:31.288Z,93.35
2018-10-16T04:21:06.616Z,93.35
2018-10-16T04:21:42.153Z,93.26
2018-10-16T04:22:17.681Z,93.06
2018-10-16T04:22:53.010Z,93.16
2018-10-16T04:23:28.535Z,93.26
2018-10-16T04:24:03.666Z,92.97
2018-10-16T04:24:39.129Z,93.06
2018-10-16T04:25:14.742Z,92.97
2018-10-16T04:25:50.471Z,93.54
2018-10-16T04:26:25.782Z,93.26
2018-10-16T04:27:01.593Z,93.26
2018-10-16T04:27:36.869Z,94.07
2018-10-16T04:28:12.262Z,94.07
2018-10-16T04:28:47.901Z,93.88
2018-10-16T04:29:22.935Z,93.98
2018-10-16T04:29:58.183Z,94.07
2018-10-16T04:30:33.442Z,93.83
2018-10-16T04:31:09.051Z,93.88
2018-10-16T04:31:44.370Z,93.26
2018-10-16T04:32:19.876Z,93.11
2018-10-16T04:32:55.359Z,93.35
2018-10-16T04:33:30.789Z,94.07
2018-10-16T04:34:06.119Z,93.98
2018-10-16T04:34:41.350Z,93.49
2018-10-16T04:35:16.707Z,93.21
2018-10-16T04:35:52.308Z,92.58
2018-10-16T04:36:27.724Z,92.58
2018-10-16T04:37:03.435Z,92.49
2018-10-16T04:37:38.778Z,91.82
2018-10-16T04:38:14.143Z,91.53
2018-10-16T04:38:49.481Z,91.91
2018-10-16T04:39:24.836Z,92.58
2018-10-16T04:40:00.370Z,92.92
2018-10-16T04:40:35.684Z,92.68
2018-10-16T04:41:11.200Z,92.97
2018-10-16T04:41:46.612Z,93.16
2018-10-16T04:42:21.882Z,93.16
2018-10-16T04:42:57.362Z,93.30
2018-10-16T04:43:32.812Z,93.78
2018-10-16T04:44:08.238Z,93.98
2018-10-16T04:44:43.567Z,94.45
2018-10-16T04:45:18.725Z,94.64
2018-10-16T04:45:54.271Z,94.55
2018-10-16T04:46:29.405Z,95.03
2018-10-16T04:47:04.859Z,94.74
2018-10-16T04:47:40.184Z,94.84
2018-10-16T04:48:15.622Z,95.41
2018-10-16T04:48:51.247Z,95.22
2018-10-16T04:49:26.678Z,94.64
2018-10-16T04:50:01.867Z,94.55
2018-10-16T04:50:37.315Z,95.12
2018-10-16T04:51:12.515Z,94.93
2018-10-16T04:51:48.140Z,95.03
2018-10-16T04:52:23.172Z,95.12
2018-10-16T04:52:58.798Z,94.93
2018-10-16T04:53:34.359Z,95.03
2018-10-16T04:54:09.982Z,95.12
2018-10-16T04:54:45.326Z,95.03
2018-10-16T04:55:21.068Z,95.41
2018-10-16T04:55:56.509Z,95.31
2018-10-16T04:56:31.799Z,95.22
2018-10-16T04:57:07.202Z,94.93
2018-10-16T04:57:42.606Z,94.84
2018-10-16T04:58:17.861Z,95.03
2018-10-16T04:58:53.392Z,95.60
2018-10-16T04:59:28.949Z,95.31
2018-10-16T05:00:04.421Z,95.41
2018-10-16T05:00:39.962Z,95.41
2018-10-16T05:01:15.313Z,94.84
2018-10-16T05:01:50.961Z,94.84
2018-10-16T05:02:26.403Z,94.84
2018-10-16T05:03:01.755Z,94.84
2018-10-16T05:03:37.631Z,95.12
2018-10-16T05:04:13.049Z,95.12
2018-10-16T05:04:48.452Z,95.12
2018-10-16T05:05:23.800Z,95.41
2018-10-16T05:05:58.937Z,95.22
2018-10-16T05:06:34.677Z,95.12
2018-10-16T05:07:09.837Z,95.79
2018-10-16T05:07:45.077Z,95.22
2018-10-16T05:08:20.403Z,96.08
2018-10-16T05:08:55.963Z,95.70
2018-10-16T05:09:31.297Z,95.31
2018-10-16T05:10:06.642Z,95.51
2018-10-16T05:10:42.382Z,94.93
2018-10-16T05:11:17.727Z,95.31
2018-10-16T05:11:53.055Z,95.31
2018-10-16T05:12:28.394Z,95.03
2018-10-16T05:13:03.628Z,95.03
2018-10-16T05:13:39.130Z,95.70
2018-10-16T05:14:14.478Z,95.60
2018-10-16T05:14:49.951Z,95.51
2018-10-16T05:15:25.287Z,95.03
2018-10-16T05:16:00.592Z,95.12
2018-10-16T05:16:36.106Z,94.93
2018-10-16T05:17:11.808Z,95.70
2018-10-16T05:17:47.039Z,95.51
2018-10-16T05:18:22.362Z,95.03
2018-10-16T05:18:57.526Z,95.03
2018-10-16T05:19:32.742Z,94.93
2018-10-16T05:20:08.092Z,94.98
2018-10-16T05:20:43.713Z,95.31
2018-10-16T05:21:18.779Z,95.12
2018-10-16T05:21:54.219Z,95.27
2018-10-16T05:22:29.640Z,95.07
2018-10-16T05:23:05.107Z,95.89
2018-10-16T05:23:40.608Z,95.65
2018-10-16T05:24:16.072Z,95.60
2018-10-16T05:24:51.505Z,95.56
2018-10-16T05:25:26.914Z,95.27
2018-10-16T05:26:02.437Z,95.22
2018-10-16T05:26:37.803Z,95.46
2018-10-16T05:27:13.074Z,95.84
2018-10-16T05:27:48.293Z,95.41
2018-10-16T05:28:23.698Z,95.36
2018-10-16T05:28:58.958Z,95.46
2018-10-16T05:29:34.205Z,95.51
2018-10-16T05:30:09.225Z,95.60
2018-10-16T05:30:44.506Z,96.03
2018-10-16T05:31:19.852Z,95.70
2018-10-16T05:31:54.959Z,95.84
2018-10-16T05:32:30.475Z,95.17
2018-10-16T05:33:05.958Z,95.27
2018-10-16T05:33:41.161Z,95.27
2018-10-16T05:34:16.684Z,95.07
2018-10-16T05:34:51.913Z,95.75
2018-10-16T05:35:27.421Z,95.89
2018-10-16T05:36:03.143Z,95.56
2018-10-16T05:36:38.698Z,95.46
2018-10-16T05:37:14.186Z,95.12
2018-10-16T05:37:50.005Z,95.84
2018-10-16T05:38:25.257Z,95.79
2018-10-16T05:39:00.595Z,95.36
2018-10-16T05:39:35.952Z,95.41
2018-10-16T05:40:11.416Z,95.46
2018-10-16T05:40:47.480Z,95.56
2018-10-16T05:41:23.086Z,95.41
2018-10-16T05:41:58.526Z,95.22
2018-10-16T05:42:33.660Z,95.89
2018-10-16T05:43:08.801Z,94.84
2018-10-16T05:43:44.118Z,94.84
2018-10-16T05:44:19.553Z,95.12
2018-10-16T05:44:54.990Z,95.22
2018-10-16T05:45:30.002Z,95.31
2018-10-16T05:46:05.453Z,95.12
2018-10-16T05:46:40.718Z,95.60
2018-10-16T05:47:16.152Z,95.51
2018-10-16T05:47:51.595Z,95.31
2018-10-16T05:48:26.843Z,95.12
2018-10-16T05:49:02.065Z,95.12
2018-10-16T05:49:37.510Z,94.74
2018-10-16T05:50:13.138Z,94.84
2018-10-16T05:50:48.677Z,95.22
2018-10-16T05:51:24.053Z,94.26
2018-10-16T05:52:01.285Z,94.35
2018-10-16T05:52:36.903Z,95.03
2018-10-16T05:53:12.231Z,95.22
2018-10-16T05:53:47.996Z,95.51
2018-10-16T05:54:23.523Z,95.60
2018-10-16T05:54:58.654Z,95.51
2018-10-16T05:55:33.866Z,95.60
2018-10-16T05:56:09.098Z,95.70
2018-10-16T05:56:44.483Z,95.31
2018-10-16T05:57:19.818Z,95.31
2018-10-16T05:57:55.246Z,95.79
2018-10-16T05:58:30.649Z,95.98
2018-10-16T05:59:06.322Z,95.12
2018-10-16T05:59:41.663Z,95.98
2018-10-16T06:00:16.821Z,95.12
2018-10-16T06:00:54.570Z,94.84
2018-10-16T06:01:29.994Z,95.03
2018-10-16T06:02:05.534Z,95.31
2018-10-16T06:02:40.869Z,95.03
2018-10-16T06:03:16.098Z,94.45
2018-10-16T06:03:51.877Z,94.45
2018-10-16T06:04:27.568Z,94.45
2018-10-16T06:05:03.052Z,93.98
2018-10-16T06:05:38.581Z,93.98
2018-10-16T06:06:13.852Z,93.69
2018-10-16T06:06:49.330Z,93.88
2018-10-16T06:07:24.840Z,93.30
2018-10-16T06:08:00.100Z,94.45
2018-10-16T06:08:35.291Z,95.12
2018-10-16T06:09:10.764Z,95.03
2018-10-16T06:09:47.117Z,94.64
2018-10-16T06:10:22.538Z,93.69
2018-10-16T06:10:57.818Z,93.78
2018-10-16T06:11:33.100Z,94.07
2018-10-16T06:12:08.606Z,93.30
2018-10-16T06:12:43.959Z,93.98
2018-10-16T06:13:19.316Z,93.30
2018-10-16T06:13:54.716Z,93.02
2018-10-16T06:14:30.055Z,93.21
2018-10-16T06:15:05.376Z,93.02
2018-10-16T06:15:40.719Z,93.02
2018-10-16T06:16:15.972Z,94.07
2018-10-16T06:16:51.122Z,93.30
2018-10-16T06:17:26.489Z,93.11
2018-10-16T06:18:01.835Z,93.78
2018-10-16T06:18:37.237Z,94.64
2018-10-16T06:19:12.882Z,94.35
2018-10-16T06:19:48.531Z,94.84
2018-10-16T06:20:23.935Z,94.93
2018-10-16T06:20:59.317Z,94.74
2018-10-16T06:21:34.831Z,94.74
2018-10-16T06:22:10.290Z,95.22
2018-10-16T06:22:45.832Z,94.74
2018-10-16T06:23:21.052Z,95.31
2018-10-16T06:23:56.263Z,94.93
2018-10-16T06:24:31.835Z,95.22
2018-10-16T06:25:07.101Z,95.12
2018-10-16T06:25:42.825Z,95.31
2018-10-16T06:26:17.968Z,95.31
2018-10-16T06:26:53.592Z,95.22
2018-10-16T06:27:28.835Z,95.89
2018-10-16T06:28:04.370Z,95.89
2018-10-16T06:28:39.795Z,95.51
2018-10-16T06:29:15.238Z,95.12
2018-10-16T06:29:50.476Z,95.79
2018-10-16T06:30:25.940Z,95.79
2018-10-16T06:31:01.129Z,95.60
2018-10-16T06:31:36.635Z,95.60
2018-10-16T06:32:12.087Z,95.89
2018-10-16T06:32:47.288Z,95.89
2018-10-16T06:33:22.686Z,94.93
2018-10-16T06:33:58.371Z,95.22
2018-10-16T06:34:33.590Z,94.74
2018-10-16T06:35:08.964Z,94.45
2018-10-16T06:35:44.400Z,94.07
2018-10-16T06:36:19.754Z,94.64
2018-10-16T06:36:55.403Z,94.26
2018-10-16T06:37:30.959Z,94.17
2018-10-16T06:38:06.599Z,94.55
2018-10-16T06:38:41.975Z,93.78
2018-10-16T06:39:17.393Z,94.26
2018-10-16T06:39:52.681Z,94.26
2018-10-16T06:40:28.147Z,94.93
2018-10-16T06:41:03.695Z,95.03
2018-10-16T06:41:39.244Z,94.84
2018-10-16T06:42:14.701Z,94.74
2018-10-16T06:42:49.957Z,94.93
2018-10-16T06:43:25.392Z,95.12
2018-10-16T06:44:00.942Z,95.12
2018-10-16T06:44:36.416Z,94.84
2018-10-16T06:45:11.675Z,95.03
2018-10-16T06:45:47.024Z,95.03
2018-10-16T06:46:22.429Z,95.22
2018-10-16T06:46:57.637Z,95.22
2018-10-16T06:47:33.001Z,95.41
2018-10-16T06:48:08.455Z,95.46
2018-10-16T06:48:44.117Z,96.03
2018-10-16T06:49:19.633Z,95.65
2018-10-16T06:49:54.957Z,95.94
2018-10-16T06:50:30.072Z,96.03
2018-10-16T06:51:05.097Z,95.75
2018-10-16T06:51:40.346Z,95.36
2018-10-16T06:52:15.889Z,95.75
2018-10-16T06:52:51.142Z,96.13
2018-10-16T06:53:26.615Z,95.84
2018-10-16T06:54:02.109Z,96.32
2018-10-16T06:54:37.322Z,96.03
2018-10-16T06:55:12.567Z,96.13
2018-10-16T06:55:47.753Z,96.42
2018-10-16T06:56:23.003Z,95.94
2018-10-16T06:56:58.364Z,95.75
2018-10-16T06:57:33.617Z,96.13
2018-10-16T06:58:09.190Z,95.94
2018-10-16T06:58:44.542Z,95.84
2018-10-16T06:59:19.771Z,95.89
2018-10-16T06:59:55.278Z,95.65
2018-10-16T07:00:31.000Z,95.84
2018-10-16T07:01:06.341Z,95.94
2018-10-16T07:01:41.505Z,96.32
2018-10-16T07:02:16.997Z,96.42
2018-10-16T07:02:52.251Z,96.42
2018-10-16T07:03:27.861Z,96.03
2018-10-16T07:04:03.508Z,96.22
2018-10-16T07:04:39.049Z,95.89
2018-10-16T07:05:14.363Z,96.03
2018-10-16T07:05:50.068Z,95.84
2018-10-16T07:06:25.576Z,96.22
2018-10-16T07:07:01.227Z,96.13
2018-10-16T07:07:36.396Z,96.32
2018-10-16T07:08:11.980Z,96.22
2018-10-16T07:08:47.620Z,95.75
2018-10-16T07:09:22.803Z,96.13
2018-10-16T07:09:58.361Z,96.18
2018-10-16T07:10:33.820Z,95.89
2018-10-16T07:11:09.575Z,96.18
2018-10-16T07:11:44.904Z,95.89
2018-10-16T07:12:20.547Z,95.84
2018-10-16T07:12:56.230Z,95.84
2018-10-16T07:13:31.680Z,95.98
2018-10-16T07:14:06.998Z,95.65
2018-10-16T07:14:42.167Z,95.46
2018-10-16T07:15:17.684Z,95.98
2018-10-16T07:15:53.048Z,95.12
2018-10-16T07:16:28.574Z,95.31
2018-10-16T07:17:03.925Z,94.74
2018-10-16T07:17:39.452Z,95.89
2018-10-16T07:18:14.753Z,94.84
2018-10-16T07:18:50.327Z,94.84
2018-10-16T07:19:26.086Z,95.22
2018-10-16T07:20:01.753Z,95.03
2018-10-16T07:20:37.368Z,94.84
2018-10-16T07:21:12.939Z,95.12
2018-10-16T07:21:48.031Z,95.03
2018-10-16T07:22:23.588Z,94.74
2018-10-16T07:22:59.089Z,94.93
2018-10-16T07:23:34.981Z,94.55
2018-10-16T07:24:10.306Z,95.03
2018-10-16T07:24:45.544Z,94.84
2018-10-16T07:25:20.843Z,94.45
2018-10-16T07:25:56.180Z,94.45
2018-10-16T07:26:31.446Z,94.35
2018-10-16T07:27:06.541Z,94.45
2018-10-16T07:27:41.967Z,94.45
2018-10-16T07:28:17.191Z,94.64
2018-10-16T07:28:52.733Z,94.45
2018-10-16T07:29:28.387Z,93.78
2018-10-16T07:30:03.886Z,94.17
2018-10-16T07:30:39.194Z,93.98
2018-10-16T07:31:14.486Z,94.17
2018-10-16T07:31:49.724Z,94.64
2018-10-16T07:32:25.115Z,93.59
2018-10-16T07:33:00.693Z,93.49
2018-10-16T07:33:35.821Z,93.30
2018-10-16T07:34:11.390Z,93.30
2018-10-16T07:34:46.818Z,93.21
2018-10-16T07:35:22.163Z,93.11
2018-10-16T07:35:57.633Z,93.02